Terminal Aerodrome Forecast
Issued by NWS Raleigh/Durham, NC

Home | Current Version | Previous Version | Text Only | Print | Product List | Glossary On
Versions: 1 2 3 4 5 6 7 8 9 10 11 12 13 14 15 16 17 18 19 20 21 22 23 24 25 26 27 28 29 30 31 32 33 34 35 36 37 38 39 40 41 42 43 44 45 46 47 48 49 50
000
FTUS42 KRAH 031321 AAA
TAFGSO
TAF AMD
KGSO 031321Z 0313/0412 VRB03KT P6SM SCT005 SCT020 BKN080
      TEMPO 0313/0315 BKN020
     FM031500 24006KT P6SM SCT035 SCT250
     FM032100 24006KT P6SM SCT035 BKN060
      TEMPO 0321/0324 27015G30KT 2SM -SHRA SCT020 BKN035
     FM040000 20009KT P6SM VCSH BKN040=

USA.gov is the U.S. government's official web portal to all federal, state and local government web resources and services.